• Join FlightAware (Why Join?)
  • Login
  • US Flag 
10:53PM EDT


 

Airport Tracker/Info


-or-


 

Live Flight TrackerFlight Track Log ✈ AAL2359 ✈ 22-May-2013 ✈ KORD - KDFW

Flight Track Log - Related Links

Times and Time Zones

All times are in EDT time to prevent confusion due to time zone crossing. See the AAL2359 flight status page for this flight to view local times or setup timezone preferences in your user account.

Time Position Orientation Groundspeed Altitude Reporting Facility
EDT Latitude Longitude Course Direction KTS MPH feet Rate Location/Type
11:55PM 42.0000 -87.9500 207° Southwest 186 214 2,400  Level Chicago TRACON
11:57PM 41.7350 -88.1983 201° Southwest  Level Estimated
11:57PM 41.9433 -88.0489 232° Southwest 257 296 4,900  Level Chicago Center
11:58PM 41.6526 -88.2951 197° South  Level Estimated
11:58PM 41.8681 -88.0458 178° South 269 310 5,000  Level Chicago Center
11:59PM 41.5545 -88.2300 154° Southeast  Level FlightAware Approximate
11:59PM 41.7928 -88.0400 177° South 271 312 5,000  Level Chicago Center
12:00AM 41.4727 -88.3274 207° Southwest  Level Estimated
12:00AM 41.7056 -88.0519 186° South 270 311 6,700  Level Chicago Center
12:01AM 41.6333 -88.0819 197° South 274 315 9,800 2,580 Climbing Chicago Center
12:02AM 41.5564 -88.1156 198° South 292 336 12,000 2,280 Climbing Chicago Center
12:03AM 41.4664 -88.1528 197° South 343 395 14,500 2,520 Climbing Chicago Center
12:04AM 41.3747 -88.1922 198° South 359 413 17,200 2,760 Climbing Chicago Center
12:05AM 41.2581 -88.2456 199° South 372 428 20,200 2,400 Climbing Chicago Center
12:06AM 41.1564 -88.2919 199° South 383 441 22,200 1,860 Climbing Chicago Center
12:07AM 41.0494 -88.3406 199° South 400 460 24,000 1,800 Climbing Chicago Center
12:08AM 40.9400 -88.3894 199° South 414 476 25,900 1,860 Climbing Chicago Center
12:09AM 40.8481 -88.4839 218° Southwest 418 481 27,800 1,800 Climbing Chicago Center
12:10AM 40.7672 -88.5944 226° Southwest 419 482 29,600 1,620 Climbing Chicago Center
12:11AM 40.6875 -88.7017 226° Southwest 414 476 31,100 1,020 Climbing Chicago Center
12:12AM 40.6081 -88.8072 225° Southwest 410 472 31,700 420 Climbing Chicago Center
12:13AM 40.5186 -88.9267 225° Southwest 408 470 32,000 120 Climbing Chicago Center
12:14AM 40.4372 -89.0331 225° Southwest 410 472 32,000  Level Chicago Center
12:15AM 40.3572 -89.1397 225° Southwest 408 470 32,000  Level Chicago Center
12:16AM 40.2753 -89.2472 225° Southwest 413 475 32,000  Level Chicago Center
12:17AM 40.1922 -89.3536 224° Southwest 418 481 32,000  Level Chicago Center
12:18AM 40.1261 -89.4408 225° Southwest 417 480 32,000  Level Kansas City Center
12:19AM 40.0428 -89.5481 225° Southwest 418 481 32,000  Level Kansas City Center
12:20AM 39.9597 -89.6558 225° Southwest 419 482 32,000  Level Kansas City Center
12:21AM 39.8764 -89.7644 225° Southwest 421 484 32,000  Level Kansas City Center
12:22AM 39.7942 -89.8717 225° Southwest 419 482 32,000 480 Level Kansas City Center
12:23AM 39.7031 -89.9869 224° Southwest 417 480 33,000 780 Climbing Kansas City Center
12:24AM 39.6225 -90.0897 225° Southwest 411 473 33,600 480 Climbing Kansas City Center
12:25AM 39.5428 -90.1928 225° Southwest 408 470 34,000 180 Climbing Kansas City Center
12:26AM 39.4617 -90.2953 224° Southwest 408 470 34,000  Level Kansas City Center
12:27AM 39.3819 -90.3981 225° Southwest 407 468 34,000  Level Kansas City Center
12:28AM 39.2844 -90.5219 225° Southwest 411 473 34,000  Level Kansas City Center
12:29AM 39.2033 -90.6219 224° Southwest 408 470 34,000  Level Kansas City Center
12:30AM 39.1211 -90.7264 225° Southwest 408 470 34,000  Level Kansas City Center
12:31AM 39.0431 -90.8225 224° Southwest 405 466 34,000  Level Kansas City Center
12:32AM 38.9617 -90.9253 224° Southwest 411 473 34,000  Level Kansas City Center
12:33AM 38.8814 -91.0239 224° Southwest 407 468 34,000  Level Kansas City Center
12:34AM 38.8017 -91.1228 224° Southwest 405 466 34,000  Level Kansas City Center
12:35AM 38.7200 -91.2244 224° Southwest 410 472 34,000  Level Kansas City Center
12:36AM 38.6389 -91.3242 224° Southwest 409 471 34,000  Level Kansas City Center
12:37AM 38.5492 -91.4333 224° Southwest 408 470 34,000  Level Kansas City Center
12:38AM 38.4661 -91.5336 223° Southwest 409 471 34,000  Level Kansas City Center
12:39AM 38.3828 -91.6344 224° Southwest 410 472 34,000  Level Kansas City Center
12:40AM 38.3000 -91.7350 224° Southwest 409 471 34,000  Level Kansas City Center
12:41AM 38.2167 -91.8353 223° Southwest 410 472 34,000  Level Kansas City Center
12:42AM 38.1339 -91.9350 223° Southwest 408 470 34,000  Level Kansas City Center
12:43AM 38.0508 -92.0353 224° Southwest 408 470 34,000  Level Kansas City Center
12:45AM 37.9631 -92.1419 224° Southwest 413 475 34,000  Level Kansas City Center
12:46AM 37.8797 -92.2403 223° Southwest 412 474 34,000  Level Kansas City Center
12:47AM 37.7947 -92.3428 224° Southwest 419 482 34,000  Level Kansas City Center
12:48AM 37.7100 -92.4417 223° Southwest 417 480 34,000  Level Kansas City Center
12:49AM 37.6228 -92.5458 223° Southwest 416 479 34,000  Level Kansas City Center
12:50AM 37.5389 -92.6453 223° Southwest 414 476 34,000  Level Kansas City Center
12:51AM 37.4547 -92.7442 223° Southwest 413 475 34,000  Level Kansas City Center
12:52AM 37.3694 -92.8378 221° Southwest 406 467 34,000  Level Kansas City Center
12:53AM 37.2644 -92.9503 220° Southwest 412 474 34,000  Level Kansas City Center
12:54AM 37.1644 -93.0289 212° Southwest 420 483 34,000  Level Kansas City Center
12:55AM 37.0653 -93.1072 212° Southwest 421 484 34,000  Level Kansas City Center
12:56AM 36.9675 -93.1844 212° Southwest 417 480 34,000  Level Kansas City Center
12:57AM 36.8692 -93.2617 212° Southwest 417 480 34,000  Level Kansas City Center
12:58AM 36.7703 -93.3356 211° Southwest 419 482 34,000  Level Kansas City Center
12:59AM 36.6747 -93.4122 213° Southwest 417 480 34,000  Level Kansas City Center
01:00AM 36.5767 -93.4897 212° Southwest 418 481 34,000  Level Kansas City Center
01:01AM 36.4789 -93.5647 212° Southwest 416 479 34,000  Level Kansas City Center
01:02AM 36.3611 -93.6581 213° Southwest 425 489 34,000  Level Memphis Center
01:03AM 36.2653 -93.7342 213° Southwest 420 483 34,000  Level Memphis Center
01:04AM 36.1631 -93.8094 211° Southwest 420 483 34,000  Level Memphis Center
01:05AM 36.0650 -93.8850 212° Southwest 420 483 34,000  Level Memphis Center
01:06AM 35.9669 -93.9603 212° Southwest 420 483 34,000  Level Memphis Center
01:07AM 35.8689 -94.0356 212° Southwest 420 483 34,000  Level Memphis Center
01:08AM 35.7706 -94.1131 213° Southwest 420 483 34,000  Level Memphis Center
01:09AM 35.6725 -94.1878 212° Southwest 420 483 34,000  Level Memphis Center
01:10AM 35.5742 -94.2622 212° Southwest 420 483 34,000 -960 Level Memphis Center
01:12AM 35.4169 -94.3621 211° Southwest  Level FlightAware Approximate
01:19AM 34.8155 -94.8846 219° Southwest  Level FlightAware Approximate
01:20AM 34.7336 -94.9666 219° Southwest  Level FlightAware Approximate
01:21AM 34.6517 -95.0485 219° Southwest  Level FlightAware Approximate
01:22AM 34.5697 -95.1303 220° Southwest  Level FlightAware Approximate
01:23AM 34.4878 -95.2122 220° Southwest  Level FlightAware Approximate
01:24AM 34.4087 -95.2978 223° Southwest  Level FlightAware Approximate
01:25AM 34.3305 -95.3846 223° Southwest  Level FlightAware Approximate
01:26AM 34.2500 -95.4676 270° West  Level FlightAware Approximate
01:27AM 34.1803 -95.5579 222° Southwest  Level FlightAware Approximate
01:28AM 34.1008 -95.6428 221° Southwest  Level FlightAware Approximate
01:29AM 34.0212 -95.7274 221° Southwest  Level FlightAware Approximate
01:30AM 33.9401 -95.8099 220° Southwest  Level FlightAware Approximate
01:31AM 33.8586 -95.8916 220° Southwest  Level FlightAware Approximate
01:32AM 33.7771 -95.9733 220° Southwest  Level FlightAware Approximate
01:33AM 33.6955 -96.0548 220° Southwest  Level FlightAware Approximate
01:33AM 33.6500 -96.3000 220° Southwest 341 392 11,000  Level Dallas / Fort Worth TRACON
01:33AM 33.6167 -96.3500 231° Southwest 340 391 11,000  Level Dallas / Fort Worth TRACON
01:34AM 33.6139 -96.1362 220° Southwest  Level FlightAware Approximate
01:34AM 33.5500 -96.4167 220° Southwest 338 389 11,000  Level Dallas / Fort Worth TRACON
01:35AM 33.5390 -96.2262 226° Southwest  Level FlightAware Approximate
01:35AM 33.5000 -96.5000 234° Southwest 338 389 11,000  Level Dallas / Fort Worth TRACON
01:36AM 33.4582 -96.3085 220° Southwest  Level FlightAware Approximate
01:36AM 33.4333 -96.5833 226° Southwest 335 386 11,000  Level Dallas / Fort Worth TRACON
01:37AM 33.3789 -96.3921 239° Southwest  Level FlightAware Approximate
01:37AM 33.3667 -96.6500 220° Southwest 291 335 10,400  Level Dallas / Fort Worth TRACON
01:38AM 33.3118 -96.4882 220° Southwest  Level FlightAware Approximate
01:38AM 33.3167 -96.7167 228° Southwest 279 321 8,700  Level Dallas / Fort Worth TRACON
01:39AM 33.2667 -96.7833 228° Southwest 260 299 6,900 -1,680 Descending Dallas / Fort Worth TRACON
01:40AM 33.2167 -96.8333 220° Southwest 229 264 5,600 -1,440 Descending Dallas / Fort Worth TRACON
01:41AM 33.1667 -96.9000 228° Southwest 211 243 3,900 -1,320 Descending Dallas / Fort Worth TRACON
01:42AM 33.1333 -96.9333 220° Southwest 195 224 2,700 -900 Descending Dallas / Fort Worth TRACON
01:43AM 33.0833 -96.9833 220° Southwest 196 226 2,100 -420 Descending Dallas / Fort Worth TRACON
01:44AM 33.0500 -97.0167 220° Southwest 197 227 2,000 -120 Descending Dallas / Fort Worth TRACON